Flight Track Log - Related Links

Times and Time Zones

All times are in EDT time to prevent confusion due to time zone crossing. See the EJA839 flight status page for this flight to view local times or setup timezone preferences in your user account.

Time Position Orientation Groundspeed Altitude Reporting Facility
EDT Latitude Longitude Course Direction KTS MPH feet Rate Location/Type
Wed 02:32:06 PM 38.9167 -77.4333 195° South 194 223 2,600  Level Potomac TRACON
Wed 02:33:00 PM 38.8667 -77.4500 195° South 191 220 6,000 3,250 Climbing Potomac TRACON
Wed 02:34:06 PM 38.8000 -77.4500 180° South 229 264 9,100 2,429 Climbing Potomac TRACON
Wed 02:35:06 PM 38.7333 -77.4667 191° South 278 320 11,100 2,050 Climbing Potomac TRACON
Wed 02:36:06 PM 38.6500 -77.5000 197° South 307 353 13,200 1,837 Climbing Potomac TRACON
Wed 02:36:44 PM 38.6000 -77.5122 191° South 309 356 14,100 1,837 Climbing Washington Center
Wed 02:37:44 PM 38.5078 -77.5339 190° South 316 364 16,200 2,050 Climbing Washington Center
Wed 02:38:44 PM 38.4281 -77.5608 195° South 322 371 18,200 2,000 Climbing Washington Center
Wed 02:39:44 PM 38.3583 -77.6253 216° Southwest 307 353 20,200 2,050 Climbing Washington Center
Wed 02:40:44 PM 38.3025 -77.7111 230° Southwest 307 353 22,300 1,850 Climbing Washington Center
Wed 02:41:44 PM 38.2447 -77.8019 231° Southwest 317 365 23,900 1,550 Climbing Washington Center
Wed 02:42:44 PM 38.1847 -77.8872 228° Southwest 328 377 25,400 1,400 Climbing Washington Center
Wed 02:43:44 PM 38.1064 -77.9508 213° Southwest 334 384 26,700 800 Climbing Washington Center
Wed 02:44:44 PM 38.0133 -78.0139 208° Southwest 344 396 27,000 150 Climbing Washington Center
Wed 02:45:44 PM 37.9203 -78.0767 208° Southwest 357 411 27,000 50 Level Washington Center
Wed 02:46:43 PM 37.8250 -78.1472 210° Southwest 383 441 27,100 706 Climbing Washington Center
Wed 02:47:43 PM 37.7525 -78.2131 216° Southwest 383 441 28,400 1,190 Climbing Washington Center
Wed 02:48:44 PM 37.6694 -78.2889 216° Southwest 377 434 29,500 1,240 Climbing Washington Center
Wed 02:49:44 PM 37.5886 -78.3594 215° Southwest 367 422 30,900 1,600 Climbing Washington Center
Wed 02:50:44 PM 37.4992 -78.4372 215° Southwest 362 417 32,700 1,600 Climbing Washington Center
Wed 02:51:44 PM 37.4183 -78.5050 214° Southwest 362 417 34,100 1,450 Climbing Washington Center
Wed 02:52:44 PM 37.3456 -78.5806 220° Southwest 362 417 35,600 1,462 Climbing Washington Center
Wed 02:53:43 PM 37.2747 -78.6561 220° Southwest 351 404 37,000 1,450 Climbing Washington Center
Wed 02:54:44 PM 37.2039 -78.7314 220° Southwest 340 391 38,500 1,300 Climbing Washington Center
Wed 02:55:43 PM 37.1439 -78.7992 222° Southwest 335 386 39,600 750 Climbing Washington Center
Wed 02:56:44 PM 37.0731 -78.8717 219° Southwest 335 386 40,000 200 Climbing Washington Center
Wed 02:57:43 PM 36.9997 -78.9544 222° Southwest 341 392 40,000  Level Washington Center
Wed 02:58:43 PM 36.9244 -79.0317 219° Southwest 349 402 40,000  Level Washington Center
Wed 02:59:44 PM 36.8403 -79.1267 222° Southwest 362 417 40,000  Level Washington Center
Wed 03:00:44 PM 36.7650 -79.2089 221° Southwest 367 422 40,000  Level Washington Center
Wed 03:01:44 PM 36.6914 -79.2908 222° Southwest 372 428 40,000  Level Washington Center
Wed 03:02:44 PM 36.6117 -79.3725 219° Southwest 372 428 40,000  Level Washington Center
Wed 03:03:44 PM 36.5383 -79.4492 220° Southwest 367 422 40,000  Level Washington Center
Wed 03:05:53 PM 36.3811 -79.6161 221° Southwest 377 434 40,000  Level Atlanta Center
Wed 03:06:53 PM 36.3069 -79.6975 221° Southwest 372 428 40,000  Level Atlanta Center
Wed 03:07:53 PM 36.2283 -79.7789 220° Southwest 372 428 40,000  Level Atlanta Center
Wed 03:08:53 PM 36.1539 -79.8575 220° Southwest 372 428 40,000  Level Atlanta Center
Wed 03:09:53 PM 36.0694 -79.9492 221° Southwest 372 428 40,000  Level Atlanta Center
Wed 03:10:53 PM 35.9775 -80.0078 207° Southwest 372 428 40,000  Level Atlanta Center
Wed 03:11:53 PM 35.8769 -80.0561 201° Southwest 377 434 40,000  Level Atlanta Center
Wed 03:12:53 PM 35.7783 -80.1072 203° Southwest 384 442 40,000  Level Atlanta Center
Wed 03:13:53 PM 35.6861 -80.1550 203° Southwest 398 458 40,000  Level Atlanta Center
Wed 03:14:53 PM 35.5856 -80.2083 203° Southwest 398 458 40,000  Level Atlanta Center
Wed 03:15:53 PM 35.4847 -80.2564 201° Southwest 393 452 40,000  Level Atlanta Center
Wed 03:16:53 PM 35.3739 -80.3150 203° Southwest 393 452 40,000  Level Atlanta Center
Wed 03:17:53 PM 35.2711 -80.3653 202° Southwest 393 452 40,000  Level Atlanta Center
Wed 03:21:03 PM 34.9469 -80.5247 202° Southwest 401 461 40,000  Level Jacksonville Center
Wed 03:22:03 PM 34.8436 -80.5756 202° Southwest 395 455 40,000  Level Jacksonville Center
Wed 03:23:03 PM 34.7589 -80.6183 203° Southwest 387 445 40,000  Level Jacksonville Center
Wed 03:24:03 PM 34.6575 -80.6714 203° Southwest 387 445 40,000  Level Jacksonville Center
Wed 03:25:03 PM 34.5458 -80.7172 199° South 419 482 40,000  Level Jacksonville Center
Wed 03:26:03 PM 34.4336 -80.7453 192° South 421 484 40,000  Level Jacksonville Center
Wed 03:27:03 PM 34.3253 -80.7581 186° South 421 484 40,000  Level Jacksonville Center
Wed 03:28:03 PM 34.2153 -80.7908 194° South 401 461 40,000  Level Jacksonville Center
Wed 03:29:03 PM 34.1008 -80.8111 188° South 401 461 40,000  Level Jacksonville Center
Wed 03:30:03 PM 33.9867 -80.8389 191° South 414 476 40,000  Level Jacksonville Center
Wed 03:31:03 PM 33.8744 -80.8639 190° South 414 476 40,000  Level Jacksonville Center
Wed 03:32:03 PM 33.7600 -80.8867 189° South 414 476 40,000  Level Jacksonville Center
Wed 03:33:03 PM 33.6478 -80.9117 191° South 414 476 40,000  Level Jacksonville Center
Wed 03:34:03 PM 33.5353 -80.9367 190° South 414 476 40,000  Level Jacksonville Center
Wed 03:35:03 PM 33.4189 -80.9614 190° South 414 476 40,000  Level Jacksonville Center
Wed 03:36:03 PM 33.3022 -80.9764 186° South 419 482 40,000 -650 Level Jacksonville Center
Wed 03:37:03 PM 33.1833 -80.9767 180° South 424 488 38,700 -1,388 Descending Jacksonville Center
Wed 03:38:04 PM 33.0622 -80.9717 178° South 429 494 37,200 -1,450 Descending Jacksonville Center
Wed 03:39:03 PM 32.9539 -80.9914 189° South 419 482 35,800 -1,765 Descending Jacksonville Center
Wed 03:40:03 PM 32.8500 -81.0158 191° South 401 461 33,700 -2,350 Descending Jacksonville Center
Wed 03:41:03 PM 32.7314 -81.0453 192° South 396 456 31,100 -1,800 Descending Jacksonville Center
Wed 03:42:03 PM 32.6253 -81.0747 193° South 384 442 30,100 -550 Descending Jacksonville Center
Wed 03:43:03 PM 32.5211 -81.0964 190° South 420 483 30,000 -50 Descending Jacksonville Center
Wed 03:44:03 PM 32.3922 -81.1261 191° South 440 506 30,000  Level Jacksonville Center
Wed 03:45:03 PM 32.2758 -81.1553 192° South 430 495 30,000 -800 Level Jacksonville Center
Wed 03:46:03 PM 32.1614 -81.1844 192° South 425 489 28,400 -2,300 Descending Jacksonville Center
Wed 03:47:03 PM 32.0511 -81.2136 193° South 413 475 25,400 -2,200 Descending Jacksonville Center
Wed 03:48:03 PM 31.9428 -81.2400 192° South 405 466 24,000 -1,150 Descending Jacksonville Center
Wed 03:49:03 PM 31.8492 -81.2589 190° South 400 460 23,100 -1,300 Descending Jacksonville Center
Wed 03:50:03 PM 31.7367 -81.2853 191° South 388 447 21,400 -1,500 Descending Jacksonville Center
Wed 03:51:03 PM 31.6408 -81.3089 192° South 388 447 20,100 -1,500 Descending Jacksonville Center
Wed 03:52:03 PM 31.5306 -81.3350 191° South 380 437 18,400 -1,500 Descending Jacksonville Center
Wed 03:53:03 PM 31.4286 -81.3611 192° South 369 425 17,100 -1,550 Descending Jacksonville Center
Wed 03:54:03 PM 31.3414 -81.3892 195° South 363 418 15,300 -2,033 Descending Jacksonville Center
Wed 03:55:04 PM 31.2497 -81.4103 191° South 353 406 13,000 -2,350 Descending Jacksonville Center
Wed 03:56:03 PM 31.1622 -81.4333 193° South 342 394 10,600 -1,513 Descending Jacksonville Center
Wed 03:57:03 PM 31.0769 -81.4614 196° South 318 366 10,000 -480 Descending Jacksonville Center
Wed 03:57:18 PM 31.0519 -81.4667 190° South 314 361 10,000  Level Jacksonville Center
Wed 03:58:03 PM 30.9872 -81.4750 186° South 318 366 10,000  Level Jacksonville Center
Wed 03:58:20 PM 30.9539 -81.4706 173° South 330 380 10,000  Level Jacksonville Center
Wed 03:59:03 PM 30.8997 -81.4786 187° South 318 366 10,000 -1,456 Level Jacksonville Center
Wed 04:00:03 PM 30.8353 -81.5183 208° Southwest 298 343 7,500 -2,700 Descending Jacksonville Center
Wed 04:01:03 PM 30.7753 -81.5700 217° Southwest 273 314 4,600 -2,250 Descending Jacksonville Center
Wed 04:02:03 PM 30.7217 -81.6167 217° Southwest 263 303 3,000 -1,200 Descending Jacksonville Center
Wed 04:02:23 PM 30.7031 -81.6361 222° Southwest 211 243 3,000  Level Jacksonville Center
Wed 04:03:03 PM 30.6739 -81.6608 216° Southwest 241 277 3,000 -197 Level Jacksonville Center
Wed 04:03:24 PM 30.6553 -81.6756 214° Southwest 195 224 2,800 -700 Descending Jacksonville Center
Wed 04:04:03 PM 30.6283 -81.7000 218° Southwest 223 257 2,300 -774 Descending Jacksonville Center
Wed 04:04:26 PM 30.6056 -81.7122 205° Southwest 213 245 2,000 -300 Descending Jacksonville Center
Wed 04:05:03 PM 30.5764 -81.7247 200° South 212 244 2,000 -393 Level Jacksonville Center
Wed 04:05:27 PM 30.5536 -81.7347 201° Southwest 196 226 1,600 -1,000 Descending Jacksonville Center
Wed 04:06:03 PM 30.5264 -81.7375 185° South 199 229 1,000 -896 Descending Jacksonville Center
Wed 04:06:34 PM 30.5075 -81.7256 151° Southeast 129 148 600 -774 Descending Jacksonville Center
Wed 04:08:00 PM 30.4941 -81.6879 105° East  Level Estimated
Wed 04:15:00 PM 30.4941 -81.6879 311° West  Level Estimated

Login

Don't have an account? Register now (free) for customized features, flight alerts, and more!